createdAt,value
2023-03-14T00:00:21.721Z,14.80
2023-03-14T00:03:10.992Z,11.80
2023-03-14T00:05:40.496Z,12.50
2023-03-14T00:08:09.795Z,15.10
2023-03-14T00:10:39.959Z,13.40
2023-03-14T00:15:39.289Z,10.30
2023-03-14T00:18:08.940Z,12.30
2023-03-14T00:20:37.835Z,9.90
2023-03-14T00:23:07.578Z,9.10
2023-03-14T00:25:38.168Z,9.10
2023-03-14T00:30:39.209Z,7.30
2023-03-14T00:33:09.140Z,9.90
2023-03-14T00:35:39.761Z,10.10
2023-03-14T00:38:08.961Z,10.00
2023-03-14T00:40:41.124Z,8.80
2023-03-14T00:43:10.545Z,9.50
2023-03-14T00:45:41.019Z,10.80
2023-03-14T00:48:13.303Z,9.20
2023-03-14T00:50:43.806Z,7.20
2023-03-14T00:53:14.329Z,8.00
2023-03-14T00:58:16.108Z,5.90
2023-03-14T01:00:47.160Z,6.80
2023-03-14T01:03:17.170Z,8.30
2023-03-14T01:05:46.646Z,7.60
2023-03-14T01:08:16.542Z,7.30
2023-03-14T01:10:48.045Z,6.30
2023-03-14T01:13:19.314Z,6.10
2023-03-14T01:15:49.755Z,8.00
2023-03-14T01:20:51.817Z,5.30
2023-03-14T01:23:23.236Z,8.10
2023-03-14T01:25:53.589Z,7.40
2023-03-14T01:28:24.528Z,7.50
2023-03-14T01:30:55.079Z,11.60
2023-03-14T01:33:26.558Z,8.50
2023-03-14T01:35:58.332Z,7.70
2023-03-14T01:38:36.243Z,9.20
2023-03-14T01:41:13.804Z,7.40
2023-03-14T01:43:45.463Z,6.30
2023-03-14T01:46:19.271Z,11.70
2023-03-14T01:49:10.369Z,8.50
2023-03-14T01:51:43.425Z,12.30
2023-03-14T01:54:29.152Z,12.30
2023-03-14T01:57:33.626Z,10.50
2023-03-14T02:00:16.049Z,12.90
2023-03-14T02:02:51.859Z,14.10
2023-03-14T02:05:29.043Z,11.30
2023-03-14T02:08:09.527Z,11.70
2023-03-14T02:10:50.041Z,8.90
2023-03-14T02:13:24.974Z,11.40
2023-03-14T02:16:02.116Z,9.30
2023-03-14T02:18:56.813Z,11.40
2023-03-14T02:22:09.931Z,11.20
2023-03-14T02:25:10.304Z,11.40
2023-03-14T02:27:41.284Z,10.10
2023-03-14T02:30:15.419Z,11.50
2023-03-14T02:32:55.257Z,9.40
2023-03-14T02:35:29.808Z,9.50
2023-03-14T02:38:24.214Z,11.00
2023-03-14T02:40:54.282Z,8.60
2023-03-14T02:43:25.398Z,8.70
2023-03-14T02:46:02.784Z,10.40
2023-03-14T02:48:42.497Z,8.30
2023-03-14T02:53:45.315Z,9.60
2023-03-14T02:56:15.767Z,9.40
2023-03-14T02:58:46.352Z,7.60
2023-03-14T03:01:37.673Z,8.10
2023-03-14T03:04:10.285Z,11.60
2023-03-14T03:06:40.738Z,10.90
2023-03-14T03:09:11.341Z,11.10
2023-03-14T03:11:41.434Z,10.30
2023-03-14T03:14:12.964Z,10.00
2023-03-14T03:16:43.243Z,10.50
2023-03-14T03:19:12.401Z,13.00
2023-03-14T03:21:41.827Z,13.70
2023-03-14T03:24:12.430Z,17.00
2023-03-14T03:26:42.762Z,16.60
2023-03-14T03:29:13.637Z,16.80
2023-03-14T03:34:14.354Z,17.70
2023-03-14T03:36:44.752Z,16.20
2023-03-14T03:39:15.633Z,14.00
2023-03-14T03:41:46.701Z,11.40
2023-03-14T03:44:18.119Z,12.50
2023-03-14T03:46:47.615Z,11.60
2023-03-14T03:49:17.684Z,11.60
2023-03-14T03:54:18.070Z,8.10
2023-03-14T03:56:47.983Z,6.40
2023-03-14T04:01:49.075Z,12.60
2023-03-14T04:04:21.774Z,10.50
2023-03-14T04:06:53.101Z,8.60
2023-03-14T04:09:23.285Z,11.50
2023-03-14T04:12:10.590Z,12.80
2023-03-14T04:14:58.196Z,11.80
2023-03-14T04:17:27.184Z,10.90
2023-03-14T04:19:56.864Z,11.30
2023-03-14T04:22:34.742Z,10.70
2023-03-14T04:25:05.098Z,11.70
2023-03-14T04:27:38.352Z,11.80
2023-03-14T04:30:13.378Z,13.00
2023-03-14T04:32:50.937Z,35.50
2023-03-14T04:35:21.357Z,36.60
2023-03-14T04:40:20.643Z,20.70
2023-03-14T04:42:51.874Z,14.40
2023-03-14T04:45:21.885Z,13.60
2023-03-14T04:47:51.276Z,17.10
2023-03-14T04:52:51.993Z,15.20
2023-03-14T04:55:23.428Z,19.30
2023-03-14T04:57:53.696Z,18.00
2023-03-14T05:00:23.726Z,16.70
2023-03-14T05:03:29.480Z,12.40
2023-03-14T05:06:27.553Z,12.30
2023-03-14T05:08:56.934Z,14.70
2023-03-14T05:11:40.472Z,11.80
2023-03-14T05:14:19.335Z,10.40
2023-03-14T05:17:15.933Z,12.70
2023-03-14T05:20:11.422Z,18.30
2023-03-14T05:23:16.086Z,20.50
2023-03-14T05:26:00.135Z,22.50
2023-03-14T05:28:50.213Z,16.40
2023-03-14T05:31:31.855Z,20.90
2023-03-14T05:34:32.741Z,24.80
2023-03-14T05:37:24.159Z,20.80
2023-03-14T05:40:08.149Z,29.60
2023-03-14T05:42:44.275Z,20.10
2023-03-14T05:45:34.460Z,19.90
2023-03-14T05:48:31.278Z,16.80
2023-03-14T05:51:11.859Z,17.50
2023-03-14T05:53:52.176Z,16.80
2023-03-14T05:56:44.979Z,17.70
2023-03-14T05:59:34.051Z,20.70
2023-03-14T06:02:17.293Z,39.80
2023-03-14T06:04:51.889Z,47.40
2023-03-14T06:07:21.094Z,29.90
2023-03-14T06:12:20.706Z,23.90
2023-03-14T06:14:49.599Z,21.00
2023-03-14T06:17:18.807Z,17.80
2023-03-14T06:19:53.523Z,18.00
2023-03-14T06:22:22.831Z,18.30
2023-03-14T06:24:51.809Z,26.10
2023-03-14T06:27:21.115Z,24.20
2023-03-14T06:29:50.013Z,22.70
2023-03-14T06:32:19.755Z,24.80
2023-03-14T06:34:50.140Z,26.00
2023-03-14T06:37:21.085Z,24.60
2023-03-14T06:39:50.481Z,26.50
2023-03-14T06:42:25.823Z,26.20
2023-03-14T06:44:54.916Z,24.70
2023-03-14T06:47:23.816Z,22.70
2023-03-14T06:49:53.213Z,20.50
2023-03-14T06:52:22.524Z,23.20
2023-03-14T06:54:51.502Z,21.60
2023-03-14T06:57:23.339Z,22.20
2023-03-14T06:59:52.473Z,21.10
2023-03-14T07:02:27.035Z,27.10
2023-03-14T07:05:02.632Z,18.90
2023-03-14T07:07:31.810Z,20.60
2023-03-14T07:10:00.847Z,19.60
2023-03-14T07:12:30.759Z,14.10
2023-03-14T07:15:08.678Z,14.70
2023-03-14T07:17:45.306Z,15.70
2023-03-14T07:20:14.194Z,14.80
2023-03-14T07:22:43.193Z,12.60
2023-03-14T07:27:46.040Z,12.10
2023-03-14T07:30:15.856Z,12.40
2023-03-14T07:32:44.476Z,9.30
2023-03-14T07:35:14.301Z,10.90
2023-03-14T07:37:44.227Z,9.30
2023-03-14T07:40:16.795Z,11.70
2023-03-14T07:42:45.686Z,9.70
2023-03-14T07:45:20.313Z,9.60
2023-03-14T07:47:48.856Z,10.50
2023-03-14T07:50:17.989Z,8.40
2023-03-14T07:52:46.677Z,8.50
2023-03-14T07:55:15.679Z,9.40
2023-03-14T07:57:45.386Z,8.20
2023-03-14T08:00:17.907Z,9.10
2023-03-14T08:02:47.609Z,9.40
2023-03-14T08:05:16.872Z,8.60
2023-03-14T08:07:45.551Z,7.60
2023-03-14T08:10:24.329Z,8.80
2023-03-14T08:12:56.821Z,8.60
2023-03-14T08:15:26.524Z,8.20
2023-03-14T08:17:55.638Z,7.20
2023-03-14T08:20:28.159Z,8.60
2023-03-14T08:23:02.863Z,6.70
2023-03-14T08:25:32.198Z,6.60
2023-03-14T08:28:02.683Z,6.00
2023-03-14T08:30:31.810Z,6.90
2023-03-14T08:33:01.059Z,6.60
2023-03-14T08:35:31.099Z,5.90
2023-03-14T08:38:00.939Z,6.20
2023-03-14T08:40:29.899Z,4.60
2023-03-14T08:42:58.782Z,5.10
2023-03-14T08:45:28.294Z,5.70
2023-03-14T08:47:58.700Z,4.70
2023-03-14T08:50:28.085Z,5.30
2023-03-14T08:52:59.098Z,5.70
2023-03-14T08:55:28.763Z,10.10
2023-03-14T09:00:26.236Z,4.40
2023-03-14T09:02:55.500Z,4.70
2023-03-14T09:05:24.530Z,3.80
2023-03-14T09:07:53.524Z,4.30
2023-03-14T09:10:24.481Z,4.90
2023-03-14T09:12:53.150Z,5.10
2023-03-14T09:15:22.054Z,4.60
2023-03-14T09:17:50.956Z,4.00
2023-03-14T09:20:19.921Z,4.00
2023-03-14T09:22:48.563Z,5.90
2023-03-14T09:25:18.127Z,4.40
2023-03-14T09:27:47.624Z,4.30
2023-03-14T09:30:16.474Z,3.80
2023-03-14T09:32:45.652Z,4.20
2023-03-14T09:35:14.610Z,5.90
2023-03-14T09:37:44.087Z,5.50
2023-03-14T09:40:21.583Z,4.10
2023-03-14T09:42:53.255Z,5.50
2023-03-14T09:45:35.880Z,3.60
2023-03-14T09:48:06.483Z,4.30
2023-03-14T09:50:43.157Z,4.90
2023-03-14T09:53:20.021Z,3.00
2023-03-14T09:55:52.261Z,4.70
2023-03-14T09:58:23.738Z,4.30
2023-03-14T10:00:56.830Z,4.20
2023-03-14T10:03:34.136Z,5.10
2023-03-14T10:06:10.797Z,4.90
2023-03-14T10:08:46.838Z,3.90
2023-03-14T10:11:19.491Z,4.10
2023-03-14T10:14:10.954Z,4.30
2023-03-14T10:16:46.561Z,3.60
2023-03-14T10:31:27.618Z,5.30
2023-03-14T10:34:05.304Z,4.40
2023-03-14T10:36:36.409Z,4.30
2023-03-14T10:39:35.709Z,4.00
2023-03-14T10:42:16.317Z,4.10
2023-03-14T10:44:45.572Z,3.80
2023-03-14T10:47:24.912Z,4.30
2023-03-14T10:52:57.559Z,4.50
2023-03-14T10:55:18.064Z,3.70
2023-03-14T10:57:46.646Z,3.80
2023-03-14T11:00:24.073Z,2.90
2023-03-14T11:03:11.084Z,3.40
2023-03-14T11:05:59.652Z,3.80
2023-03-14T11:08:56.383Z,5.30
2023-03-14T11:11:29.674Z,3.70
2023-03-14T11:14:19.246Z,4.30
2023-03-14T11:17:03.311Z,4.60
2023-03-14T11:20:27.382Z,4.20
2023-03-14T11:23:09.453Z,3.60
2023-03-14T11:25:51.580Z,4.60
2023-03-14T11:28:44.350Z,4.80
2023-03-14T11:31:22.404Z,4.60
2023-03-14T11:34:12.626Z,4.70
2023-03-14T11:36:57.288Z,6.20
2023-03-14T11:39:30.479Z,5.50
2023-03-14T11:42:01.316Z,4.80
2023-03-14T11:44:39.525Z,4.60
2023-03-14T11:47:28.586Z,3.90
2023-03-14T11:50:20.385Z,4.30
2023-03-14T11:52:48.888Z,4.40
2023-03-14T11:55:29.569Z,4.20
2023-03-14T11:58:05.516Z,5.30
2023-03-14T12:00:34.975Z,4.80
2023-03-14T12:06:01.473Z,5.20
2023-03-14T12:08:52.127Z,5.50
2023-03-14T12:12:01.004Z,4.00
2023-03-14T12:14:33.874Z,4.40
2023-03-14T12:17:09.268Z,4.30
2023-03-14T12:19:40.878Z,3.70
2023-03-14T12:22:34.343Z,3.70
2023-03-14T12:25:08.770Z,3.60
2023-03-14T12:27:46.667Z,3.30
2023-03-14T12:30:30.930Z,3.40
2023-03-14T12:33:12.710Z,2.60
2023-03-14T12:35:52.842Z,2.90
2023-03-14T12:38:42.748Z,3.20
2023-03-14T12:41:30.279Z,4.30
2023-03-14T12:44:30.589Z,3.30
2023-03-14T12:47:20.188Z,3.70
2023-03-14T12:49:53.479Z,2.90
2023-03-14T12:52:42.929Z,3.00
2023-03-14T12:55:41.945Z,3.10
2023-03-14T12:58:28.850Z,4.90
2023-03-14T13:01:02.632Z,4.10
2023-03-14T13:03:47.325Z,2.80
2023-03-14T13:06:55.106Z,3.20
2023-03-14T13:09:38.658Z,2.50
2023-03-14T13:12:19.218Z,2.70
2023-03-14T13:14:51.206Z,2.90
2023-03-14T13:17:37.622Z,3.20
2023-03-14T13:20:35.555Z,2.70
2023-03-14T13:23:04.820Z,3.90
2023-03-14T13:28:05.180Z,2.40
2023-03-14T13:30:42.232Z,3.30
2023-03-14T13:33:19.779Z,3.20
2023-03-14T13:36:01.796Z,2.30
2023-03-14T13:38:33.180Z,4.60
2023-03-14T13:41:10.916Z,3.40
2023-03-14T13:43:47.635Z,3.70
2023-03-14T13:46:26.579Z,3.60
2023-03-14T13:49:03.293Z,3.80
2023-03-14T13:51:36.798Z,3.30
2023-03-14T13:54:15.733Z,3.80
2023-03-14T13:56:45.496Z,3.60
2023-03-14T13:59:28.659Z,3.30
2023-03-14T14:02:00.207Z,4.60
2023-03-14T14:04:30.793Z,3.60
2023-03-14T14:07:01.690Z,3.90
2023-03-14T14:09:40.798Z,3.50
2023-03-14T14:12:16.849Z,4.70
2023-03-14T14:15:17.599Z,3.30
2023-03-14T14:17:56.206Z,4.10
2023-03-14T14:20:32.988Z,3.80
2023-03-14T14:23:08.106Z,3.10
2023-03-14T14:25:38.188Z,3.50
2023-03-14T14:28:33.040Z,4.70
2023-03-14T14:31:21.051Z,4.60
2023-03-14T14:33:59.798Z,4.30
2023-03-14T14:36:33.617Z,4.30
2023-03-14T14:39:21.347Z,6.00
2023-03-14T14:41:53.126Z,4.70
2023-03-14T14:44:37.263Z,4.20
2023-03-14T14:47:06.718Z,4.60
2023-03-14T14:52:44.605Z,3.90
2023-03-14T14:55:15.163Z,4.10
2023-03-14T14:57:58.019Z,5.30
2023-03-14T15:00:28.761Z,3.70
2023-03-14T15:03:01.300Z,4.00
2023-03-14T15:05:37.370Z,4.80
2023-03-14T15:08:11.107Z,4.00
2023-03-14T15:10:42.423Z,3.40
2023-03-14T15:13:13.871Z,4.70
2023-03-14T15:15:44.723Z,3.80
2023-03-14T15:18:18.859Z,3.00
2023-03-14T15:20:47.730Z,4.50
2023-03-14T15:23:20.042Z,4.90
2023-03-14T15:25:57.464Z,5.00
2023-03-14T15:28:31.358Z,5.00
2023-03-14T15:31:00.294Z,6.70
2023-03-14T15:33:29.089Z,6.50
2023-03-14T15:35:58.636Z,4.90
2023-03-14T15:38:27.281Z,6.20
2023-03-14T15:40:56.163Z,11.50
2023-03-14T15:43:24.953Z,26.60
2023-03-14T15:45:53.830Z,8.30
2023-03-14T15:48:23.382Z,7.20
2023-03-14T15:50:52.136Z,5.30
2023-03-14T15:53:20.947Z,5.00
2023-03-14T15:55:49.636Z,4.70
2023-03-14T15:58:21.857Z,5.10
2023-03-14T16:00:51.330Z,6.60
2023-03-14T16:03:20.103Z,6.00
2023-03-14T16:05:49.065Z,4.40
2023-03-14T16:08:18.660Z,5.70
2023-03-14T16:10:48.078Z,5.90
2023-03-14T16:13:17.059Z,9.40
2023-03-14T16:16:06.701Z,6.70
2023-03-14T16:18:37.690Z,8.10
2023-03-14T16:21:13.427Z,12.20
2023-03-14T16:23:42.520Z,8.50
2023-03-14T16:26:14.183Z,7.90
2023-03-14T16:28:43.560Z,8.20
2023-03-14T16:31:19.368Z,10.40
2023-03-14T16:33:48.312Z,10.70
2023-03-14T16:36:17.050Z,13.30
2023-03-14T16:38:46.917Z,11.20
2023-03-14T16:41:17.744Z,7.70
2023-03-14T16:43:51.459Z,6.90
2023-03-14T16:46:22.910Z,6.70
2023-03-14T16:48:51.931Z,7.00
2023-03-14T16:51:21.427Z,8.00
2023-03-14T16:53:52.456Z,6.40
2023-03-14T16:56:21.966Z,6.30
2023-03-14T16:58:51.257Z,7.50
2023-03-14T17:01:19.990Z,8.10
2023-03-14T17:03:52.815Z,8.60
2023-03-14T17:06:27.744Z,13.20
2023-03-14T17:08:58.472Z,12.00
2023-03-14T17:11:27.282Z,15.20
2023-03-14T17:13:55.955Z,19.90
2023-03-14T17:16:25.002Z,21.80
2023-03-14T17:18:54.268Z,20.10
2023-03-14T17:21:23.967Z,28.50
2023-03-14T17:23:52.755Z,30.40
2023-03-14T17:26:21.533Z,26.70
2023-03-14T17:28:50.223Z,26.70
2023-03-14T17:31:20.999Z,19.70
2023-03-14T17:33:54.140Z,19.00
2023-03-14T17:36:26.726Z,16.30
2023-03-14T17:38:58.630Z,13.10
2023-03-14T17:41:27.520Z,12.70
2023-03-14T17:43:57.593Z,11.80
2023-03-14T22:22:24.260Z,8.50
2023-03-14T22:24:54.292Z,8.10
2023-03-14T22:27:23.143Z,8.60
2023-03-14T22:29:52.589Z,10.60
2023-03-14T22:32:21.762Z,9.10
2023-03-14T22:34:50.634Z,8.90
2023-03-14T22:37:19.829Z,10.40
2023-03-14T22:39:48.827Z,7.40
2023-03-14T22:42:17.823Z,8.10
2023-03-14T22:44:46.832Z,6.70
2023-03-14T22:47:17.033Z,9.10
2023-03-14T22:49:46.133Z,8.10
2023-03-14T22:52:15.862Z,9.00
2023-03-14T22:54:45.449Z,8.00
2023-03-14T22:57:16.317Z,7.90
2023-03-14T22:59:45.421Z,8.00
2023-03-14T23:02:15.197Z,7.20
2023-03-14T23:04:44.311Z,8.00
2023-03-14T23:07:14.009Z,8.60
2023-03-14T23:09:43.503Z,8.50
2023-03-14T23:12:18.029Z,8.20
2023-03-14T23:14:47.318Z,8.40
2023-03-14T23:17:17.474Z,6.20
2023-03-14T23:19:47.181Z,7.70
2023-03-14T23:22:17.679Z,8.00
2023-03-14T23:24:49.052Z,9.90
2023-03-14T23:27:19.271Z,10.30
2023-03-14T23:29:48.770Z,7.80
2023-03-14T23:32:18.760Z,8.20
2023-03-14T23:34:49.422Z,7.30
2023-03-14T23:37:19.463Z,7.20
2023-03-14T23:39:48.562Z,10.60
2023-03-14T23:42:17.725Z,9.40
2023-03-14T23:44:47.171Z,8.50
2023-03-14T23:47:16.420Z,7.90
2023-03-14T23:49:45.599Z,8.40
2023-03-14T23:54:45.352Z,8.50
2023-03-14T23:57:15.167Z,7.10
2023-03-14T23:59:44.447Z,8.10
